Time;durP1;ratioP1;P1;durP2;ratioP2;P2;SDS_P1;SDS_P2;PMS_P1;PMS_P2;Temp;Humidity;BMP_temperature;BMP_pressure;BME280_temperature;BME280_humidity;BME280_pressure;Samples;Min_cycle;Max_cycle;Signal;HPM_P1;HPM_P2
2021/09/20 00:00:47;;;;;;;0.70;0.70;;;;;;;9.91;74.81;98692.53;1696525;83;21411;-68
2021/09/20 00:03:15;;;;;;;1.07;0.80;;;;;;;10.02;74.92;98690.59;1704862;82;21472;-67
2021/09/20 00:05:42;;;;;;;0.98;0.70;;;;;;;10.02;74.53;98689.28;1712077;81;21573;-69
2021/09/20 00:08:08;;;;;;;1.15;0.80;;;;;;;9.94;74.67;98689.27;1712249;81;21416;-67
2021/09/20 00:10:35;;;;;;;4.47;0.90;;;;;;;9.88;74.82;98693.52;1712438;81;20990;-67
2021/09/20 00:13:03;;;;;;;2.05;0.70;;;;;;;9.85;75.33;98692.84;1712096;82;21396;-67
2021/09/20 00:15:30;;;;;;;0.70;0.70;;;;;;;9.96;75.18;98685.70;1710754;81;21498;-67
2021/09/20 00:17:57;;;;;;;2.20;1.12;;;;;;;10.01;74.80;98683.67;1710145;82;21404;-68
2021/09/20 00:20:23;;;;;;;1.07;0.72;;;;;;;9.96;74.67;98683.91;1693824;82;21553;-67
2021/09/20 00:22:52;;;;;;;0.60;0.60;;;;;;;9.89;74.72;98683.42;1711924;81;21685;-66
2021/09/20 00:25:19;;;;;;;0.62;0.60;;;;;;;9.94;74.98;98684.02;1712156;82;21677;-67
2021/09/20 00:27:46;;;;;;;1.00;0.80;;;;;;;9.97;74.59;98677.73;1712014;83;21553;-66
2021/09/20 00:30:13;;;;;;;1.25;0.80;;;;;;;9.98;74.46;98677.27;1711860;83;21645;-65
2021/09/20 00:32:42;;;;;;;0.47;0.47;;;;;;;9.86;74.66;98681.42;1711693;83;21487;-65
2021/09/20 00:35:10;;;;;;;1.12;0.70;;;;;;;9.82;74.85;98669.41;1712045;82;21499;-66
2021/09/20 00:37:39;;;;;;;1.00;0.82;;;;;;;9.82;75.10;98671.55;1712218;82;21838;-66
2021/09/20 00:40:07;;;;;;;1.15;0.72;;;;;;;9.89;74.99;98669.45;1712281;82;27082;-66
2021/09/20 00:42:35;;;;;;;3.00;0.98;;;;;;;9.89;74.82;98669.45;1711500;82;21524;-67
2021/09/20 00:45:04;;;;;;;0.67;0.67;;;;;;;9.82;74.89;98671.55;1710810;82;21480;-67
2021/09/20 00:47:31;;;;;;;0.95;0.78;;;;;;;9.78;75.18;98673.14;1716799;82;21778;-67
2021/09/20 00:49:59;;;;;;;1.47;0.90;;;;;;;9.85;75.24;98671.40;1712303;82;21522;-67
2021/09/20 00:52:26;;;;;;;0.98;0.82;;;;;;;9.90;74.75;98673.28;1710970;82;21463;-67
2021/09/20 00:54:53;;;;;;;6.10;0.95;;;;;;;9.88;74.69;98675.62;1709406;82;21443;-68
2021/09/20 00:57:19;;;;;;;1.95;0.80;;;;;;;9.86;74.68;98675.70;1711622;82;21525;-68
2021/09/20 00:59:46;;;;;;;2.98;0.70;;;;;;;9.84;74.88;98674.94;1712300;81;21704;-68
2021/09/20 01:02:12;;;;;;;3.47;0.65;;;;;;;9.90;74.95;98669.34;1701221;81;21443;-68
2021/09/20 01:04:39;;;;;;;0.70;0.70;;;;;;;9.97;74.51;98672.96;1717017;83;21530;-65
2021/09/20 01:07:07;;;;;;;2.40;0.85;;;;;;;9.92;74.37;98666.16;1717430;81;20947;-66
2021/09/20 01:09:40;;;;;;;2.45;0.70;;;;;;;9.88;74.48;98672.52;1716631;82;21407;-69
2021/09/20 01:12:05;;;;;;;0.70;0.70;;;;;;;9.85;74.69;98673.16;1717033;82;21443;-64
2021/09/20 01:14:33;;;;;;;1.12;0.78;;;;;;;10.00;74.54;98667.52;1717355;81;21786;-66
2021/09/20 01:17:03;;;;;;;1.70;0.95;;;;;;;10.07;73.81;98672.81;1717246;81;21495;-65
2021/09/20 01:19:31;;;;;;;1.00;0.62;;;;;;;9.93;74.04;98663.09;1717400;81;21536;-65
2021/09/20 01:22:11;;;;;;;1.40;0.77;;;;;;;9.90;74.18;98670.66;1717752;81;21440;-66
2021/09/20 01:24:40;;;;;;;0.95;0.85;;;;;;;9.85;74.50;98665.27;1715380;82;21818;-66
2021/09/20 01:27:07;;;;;;;0.65;0.65;;;;;;;9.94;74.57;98668.27;1717591;81;27044;-66
2021/09/20 01:29:37;;;;;;;1.30;0.70;;;;;;;9.98;74.36;98666.28;1717718;81;21428;-67
2021/09/20 01:32:06;;;;;;;0.70;0.65;;;;;;;10.00;74.21;98662.27;1717373;81;21221;-67
2021/09/20 01:34:32;;;;;;;;;;;;;;;9.91;74.43;98664.48;1706452;82;21533;-68
2021/09/20 01:37:00;;;;;;;0.60;0.60;;;;;;;9.90;74.82;98665.41;1688595;83;20430;-68
2021/09/20 01:39:30;;;;;;;1.87;0.70;;;;;;;9.93;74.70;98661.30;1688608;82;21632;-68
2021/09/20 01:41:57;;;;;;;0.60;0.60;;;;;;;9.94;74.57;98664.77;1686984;83;21586;-68
2021/09/20 01:44:24;;;;;;;0.88;0.70;;;;;;;9.89;74.75;98661.58;1701721;81;21522;-67
2021/09/20 01:46:53;;;;;;;0.63;0.60;;;;;;;9.88;74.51;98665.95;1717752;81;21608;-67
2021/09/20 01:49:21;;;;;;;0.88;0.70;;;;;;;9.88;75.06;98664.64;1716865;81;21479;-67
2021/09/20 01:51:47;;;;;;;1.75;0.80;;;;;;;10.03;74.68;98659.00;1715256;82;21815;-67
2021/09/20 01:54:14;;;;;;;0.53;0.53;;;;;;;10.05;74.48;98657.61;1715213;81;21557;-67
2021/09/20 01:56:41;;;;;;;1.42;0.70;;;;;;;9.97;74.50;98664.61;1717235;81;21006;-67
2021/09/20 01:59:08;;;;;;;1.00;0.70;;;;;;;9.85;74.70;98659.58;1717756;81;21451;-67
2021/09/20 02:01:35;;;;;;;0.95;0.70;;;;;;;9.89;75.07;98658.95;1717547;81;21466;-67
2021/09/20 02:04:02;;;;;;;0.45;0.45;;;;;;;9.94;75.02;98657.76;1704927;81;21805;-67
2021/09/20 02:06:29;;;;;;;0.75;0.40;;;;;;;9.99;74.79;98659.28;1690268;82;27073;-66
2021/09/20 02:08:56;;;;;;;0.57;0.53;;;;;;;9.93;74.61;98652.11;1684763;83;21594;-65
2021/09/20 02:11:24;;;;;;;0.70;0.65;;;;;;;9.85;74.58;98649.52;1703322;82;21147;-66
2021/09/20 02:13:52;;;;;;;2.07;0.60;;;;;;;9.90;75.05;98652.75;1704085;82;21614;-66
2021/09/20 02:16:20;;;;;;;1.27;0.57;;;;;;;10.04;74.35;98655.91;1703957;82;21768;-65
2021/09/20 02:18:48;;;;;;;0.40;0.40;;;;;;;10.02;74.19;98648.14;1704650;82;21461;-64
2021/09/20 02:21:16;;;;;;;3.10;0.70;;;;;;;9.91;74.66;98653.98;1704463;82;21432;-63
2021/09/20 02:23:44;;;;;;;1.25;0.50;;;;;;;9.85;75.22;98646.90;1704300;82;21452;-63
2021/09/20 02:26:11;;;;;;;1.15;0.80;;;;;;;9.90;75.41;98650.13;1704650;82;21038;-63
2021/09/20 02:28:38;;;;;;;1.25;0.60;;;;;;;9.95;75.30;98655.97;1704624;82;21692;-65
2021/09/20 02:31:06;;;;;;;0.85;0.70;;;;;;;9.92;75.44;98658.76;1704417;82;21463;-64
2021/09/20 02:33:34;;;;;;;0.70;0.40;;;;;;;9.85;75.74;98656.09;1704876;82;21463;-64
2021/09/20 02:36:00;;;;;;;0.70;0.60;;;;;;;9.84;76.15;98655.72;1687120;82;22197;-67
2021/09/20 02:38:27;;;;;;;0.75;0.50;;;;;;;9.91;75.87;98652.67;1676297;82;21546;-70
2021/09/20 02:40:54;;;;;;;1.07;0.70;;;;;;;9.86;75.84;98656.48;1687889;82;22130;-69
2021/09/20 02:43:20;;;;;;;0.62;0.53;;;;;;;9.79;76.05;98660.37;1698545;82;21527;-70
2021/09/20 02:45:47;;;;;;;1.05;0.62;;;;;;;9.75;76.33;98651.81;1702896;83;21433;-70
2021/09/20 02:48:16;;;;;;;1.35;0.50;;;;;;;9.76;76.74;98657.47;1702181;83;20991;-71
2021/09/20 02:50:42;;;;;;;0.80;0.50;;;;;;;9.83;76.40;98654.02;1703080;82;21484;-73
2021/09/20 02:53:09;;;;;;;0.65;0.50;;;;;;;9.77;76.44;98649.95;1691470;83;22177;-69
2021/09/20 02:55:36;;;;;;;0.57;0.40;;;;;;;9.74;76.59;98649.67;1676139;83;21451;-71
2021/09/20 02:58:03;;;;;;;0.75;0.65;;;;;;;9.65;77.04;98651.95;1676149;84;21427;-69
2021/09/20 03:00:30;;;;;;;2.75;0.50;;;;;;;9.78;76.79;98649.03;1680130;83;21613;-70
2021/09/20 03:02:57;;;;;;;1.22;0.60;;;;;;;9.77;76.68;98656.98;1704416;82;21468;-73
2021/09/20 03:05:24;;;;;;;0.85;0.47;;;;;;;9.69;76.62;98648.22;1685467;82;21671;-72
2021/09/20 03:07:50;;;;;;;1.52;0.60;;;;;;;9.68;77.10;98653.95;1680469;83;21523;-72
2021/09/20 03:10:19;;;;;;;0.93;0.50;;;;;;;9.67;77.46;98648.30;1704560;82;21448;-71
2021/09/20 03:12:47;;;;;;;0.60;0.60;;;;;;;9.69;77.38;98650.38;1704133;82;21431;-71
2021/09/20 03:15:14;;;;;;;0.65;0.50;;;;;;;9.65;77.33;98642.30;1704399;82;20970;-72
2021/09/20 03:17:41;;;;;;;1.03;0.60;;;;;;;9.57;77.56;98642.32;1704739;82;22136;-71
2021/09/20 03:20:09;;;;;;;1.72;0.60;;;;;;;9.63;77.85;98653.82;1704654;82;21431;-72
2021/09/20 03:22:36;;;;;;;0.50;0.50;;;;;;;9.64;77.94;98652.40;1704380;82;21479;-71
2021/09/20 03:25:05;;;;;;;0.55;0.53;;;;;;;9.68;77.57;98653.08;1704448;82;21566;-74
2021/09/20 03:27:33;;;;;;;1.00;0.60;;;;;;;9.64;77.72;98655.02;1704237;83;21575;-71
2021/09/20 03:30:00;;;;;;;1.02;0.50;;;;;;;9.70;77.89;98653.40;1704503;82;21717;-73
2021/09/20 03:32:27;;;;;;;0.50;0.50;;;;;;;9.82;77.74;98659.74;1704396;83;21407;-72
2021/09/20 03:34:54;;;;;;;0.60;0.60;;;;;;;9.81;77.56;98651.95;1703925;82;22195;-70
2021/09/20 03:37:21;;;;;;;2.62;0.70;;;;;;;9.71;77.73;98656.86;1704429;82;21527;-69
2021/09/20 03:39:47;;;;;;;3.83;0.60;;;;;;;9.70;77.97;98656.02;1704803;82;21487;-70
2021/09/20 03:42:15;;;;;;;0.72;0.50;;;;;;;9.79;78.12;98657.75;1704408;82;22184;-71
2021/09/20 03:44:42;;;;;;;0.70;0.70;;;;;;;9.81;77.83;98656.72;1704204;82;21459;-74
2021/09/20 03:47:09;;;;;;;0.45;0.37;;;;;;;9.78;77.51;98662.63;1704408;82;21571;-72
2021/09/20 03:49:35;;;;;;;0.68;0.68;;;;;;;9.70;77.84;98664.34;1704643;82;21050;-73
2021/09/20 03:52:02;;;;;;;0.65;0.62;;;;;;;9.74;78.12;98677.70;1704492;82;21547;-66
2021/09/20 03:54:29;;;;;;;0.53;0.53;;;;;;;9.79;78.00;98670.40;1704369;82;22116;-68
2021/09/20 03:56:56;;;;;;;0.65;0.65;;;;;;;9.80;77.66;98675.20;1704195;82;21400;-68
2021/09/20 03:59:22;;;;;;;0.78;0.78;;;;;;;9.68;77.98;98690.70;1695204;83;21599;-66
2021/09/20 04:01:50;;;;;;;2.58;0.62;;;;;;;9.68;78.42;98682.83;1703077;83;21558;-66
2021/09/20 04:04:17;;;;;;;0.62;0.60;;;;;;;9.72;78.49;98680.88;1712778;81;21448;-66
2021/09/20 04:06:44;;;;;;;2.52;0.72;;;;;;;9.79;78.30;98684.84;1717272;82;21781;-66
2021/09/20 04:09:11;;;;;;;1.02;0.93;;;;;;;9.80;77.92;98687.86;1717216;81;20997;-67
2021/09/20 04:11:40;;;;;;;0.60;0.60;;;;;;;9.79;77.93;98690.56;1717236;82;21519;-65
2021/09/20 04:14:08;;;;;;;0.98;0.65;;;;;;;9.81;78.25;98691.32;1717243;81;21521;-66
2021/09/20 04:16:36;;;;;;;0.90;0.88;;;;;;;9.83;77.91;98698.20;1736489;81;21515;-66
2021/09/20 04:19:03;;;;;;;1.55;0.90;;;;;;;9.72;77.86;98702.72;1696080;81;21835;-66
2021/09/20 04:21:31;;;;;;;1.22;1.05;;;;;;;9.63;78.59;98707.63;1715383;83;21101;-66
2021/09/20 04:23:59;;;;;;;0.70;0.70;;;;;;;9.66;78.48;98706.13;1715726;82;21545;-64
2021/09/20 04:26:26;;;;;;;1.37;1.27;;;;;;;9.72;78.40;98708.44;1716613;81;21423;-65
2021/09/20 04:28:54;;;;;;;0.98;0.90;;;;;;;9.83;78.01;98707.84;1716832;81;21364;-62
2021/09/20 04:31:21;;;;;;;1.37;0.95;;;;;;;9.73;77.91;98703.08;1717340;82;21807;-62
2021/09/20 04:33:48;;;;;;;1.20;0.90;;;;;;;9.64;78.20;98711.45;1717511;82;21415;-63
2021/09/20 04:36:14;;;;;;;0.95;0.70;;;;;;;9.78;77.98;98709.89;1717597;82;20938;-62
2021/09/20 04:38:41;;;;;;;2.12;0.70;;;;;;;9.72;78.30;98718.94;1715997;82;21526;-66
2021/09/20 04:41:09;;;;;;;0.82;0.78;;;;;;;9.72;77.92;98716.31;1717450;81;21610;-67
2021/09/20 04:43:36;;;;;;;1.00;0.85;;;;;;;9.66;78.27;98720.56;1717312;81;22033;-67
2021/09/20 04:46:03;;;;;;;1.23;0.80;;;;;;;9.67;78.56;98724.89;1730864;81;21527;-66
2021/09/20 04:48:30;;;;;;;1.02;0.70;;;;;;;9.74;78.62;98724.95;1744078;81;21562;-66
2021/09/20 04:50:57;;;;;;;0.60;0.60;;;;;;;9.84;78.20;98720.89;1735381;80;21454;-66
2021/09/20 04:53:25;;;;;;;0.98;0.90;;;;;;;9.81;78.15;98722.35;1719733;81;21439;-67
2021/09/20 04:55:52;;;;;;;0.80;0.80;;;;;;;9.81;78.30;98724.98;1703642;80;21482;-66
2021/09/20 04:58:18;;;;;;;1.00;0.90;;;;;;;9.94;78.05;98732.59;1717347;81;21419;-66
2021/09/20 05:00:45;;;;;;;2.52;1.07;;;;;;;10.02;77.28;98724.30;1711340;81;21418;-67
2021/09/20 05:03:12;;;;;;;0.90;0.90;;;;;;;9.93;77.47;98732.20;1714749;81;21049;-67
2021/09/20 05:05:38;;;;;;;0.70;0.70;;;;;;;9.85;77.80;98726.53;1705106;82;21916;-68
2021/09/20 05:08:05;;;;;;;0.90;0.90;;;;;;;9.98;77.82;98724.53;1704491;82;22170;-67
2021/09/20 05:10:33;;;;;;;1.65;0.90;;;;;;;9.92;77.64;98723.09;1704394;82;20999;-68
2021/09/20 05:13:00;;;;;;;0.85;0.85;;;;;;;9.92;77.66;98738.84;1703453;82;21589;-68
2021/09/20 05:15:28;;;;;;;1.35;0.88;;;;;;;9.87;77.77;98735.17;1703360;82;20987;-67
2021/09/20 05:17:56;;;;;;;1.92;1.20;;;;;;;9.85;78.05;98735.72;1710791;82;20990;-64
2021/09/20 05:20:23;;;;;;;0.80;0.80;;;;;;;9.90;77.97;98726.27;1696958;82;21866;-66
2021/09/20 05:22:52;;;;;;;1.00;0.90;;;;;;;9.93;78.04;98736.61;1703460;82;21455;-66
2021/09/20 05:25:22;;;;;;;1.05;1.05;;;;;;;9.93;77.73;98742.70;1700950;82;21607;-66
2021/09/20 05:27:49;;;;;;;1.50;0.75;;;;;;;9.83;78.31;98744.15;1695943;82;21407;-64
2021/09/20 05:30:17;;;;;;;1.00;1.00;;;;;;;9.88;78.71;98739.95;1695862;83;21582;-67
2021/09/20 05:32:44;;;;;;;2.02;0.80;;;;;;;9.99;78.55;98738.05;1693589;83;21842;-65
2021/09/20 05:35:12;;;;;;;0.85;0.80;;;;;;;10.01;78.39;98746.70;1696162;82;21571;-68
2021/09/20 05:37:38;;;;;;;;;;;;;;;10.00;78.10;98751.11;1695620;82;21442;-65
2021/09/20 05:40:07;;;;;;;0.72;0.72;;;;;;;9.97;78.54;98753.89;1706058;82;20446;-68
2021/09/20 05:42:34;;;;;;;1.10;1.02;;;;;;;10.08;78.21;98750.21;1709367;82;21126;-66
2021/09/20 05:45:01;;;;;;;1.05;1.05;;;;;;;10.10;77.91;98747.03;1714371;81;21715;-63
2021/09/20 05:47:28;;;;;;;1.22;0.90;;;;;;;10.13;77.55;98761.77;1733636;81;21470;-69
2021/09/20 05:49:54;;;;;;;1.77;1.05;;;;;;;10.02;77.88;98761.06;1731617;81;21488;-66
2021/09/20 05:52:22;;;;;;;1.32;1.22;;;;;;;9.98;78.26;98768.70;1706941;82;21396;-67
2021/09/20 05:54:49;;;;;;;1.25;1.15;;;;;;;10.07;78.18;98773.45;1724899;80;21459;-69
2021/09/20 05:57:18;;;;;;;1.00;1.00;;;;;;;10.11;78.00;98780.27;1733740;82;21394;-64
2021/09/20 05:59:46;;;;;;;1.10;1.10;;;;;;;10.06;78.02;98782.76;1727916;81;21497;-66
2021/09/20 06:02:15;;;;;;;1.10;1.10;;;;;;;10.02;78.34;98782.08;1704354;83;21525;-69
2021/09/20 06:04:42;;;;;;;1.32;1.22;;;;;;;10.13;78.15;98790.22;1698861;82;21636;-67
2021/09/20 06:07:09;;;;;;;1.98;1.12;;;;;;;10.12;78.20;98785.04;1699726;82;21503;-65
2021/09/20 06:09:38;;;;;;;1.65;1.22;;;;;;;10.08;78.12;98789.61;1702089;82;21012;-66
2021/09/20 06:12:05;;;;;;;1.27;1.10;;;;;;;10.08;78.31;98792.23;1690293;82;21513;-66
2021/09/20 06:14:32;;;;;;;1.57;1.10;;;;;;;10.10;78.72;98796.09;1695665;82;21041;-69
2021/09/20 06:16:59;;;;;;;1.10;1.10;;;;;;;10.24;78.61;98797.48;1694994;82;21435;-67
2021/09/20 06:19:26;;;;;;;2.08;1.27;;;;;;;10.34;77.88;98800.52;1693827;82;21401;-67
2021/09/20 06:21:53;;;;;;;;;;;;;;;10.28;78.00;98808.23;1695326;82;22034;-67
2021/09/20 06:24:20;;;;;;;1.30;1.07;;;;;;;10.22;78.29;98808.55;1686311;82;20436;-68
2021/09/20 06:26:47;;;;;;;1.55;1.45;;;;;;;10.25;78.42;98808.87;1704795;82;21513;-67
2021/09/20 06:29:14;;;;;;;1.32;1.25;;;;;;;10.39;77.67;98805.02;1703338;82;21121;-67
2021/09/20 06:31:41;;;;;;;1.30;1.23;;;;;;;10.30;77.82;98813.38;1703218;83;21554;-67
2021/09/20 06:34:08;;;;;;;3.17;1.10;;;;;;;10.28;77.90;98809.99;1703588;83;22130;-67
2021/09/20 06:36:36;;;;;;;1.42;1.30;;;;;;;10.27;78.28;98817.52;1698630;82;21424;-68
2021/09/20 06:39:02;;;;;;;3.77;1.47;;;;;;;10.42;77.90;98816.69;1693738;82;21502;-67
2021/09/20 06:41:29;;;;;;;1.40;1.30;;;;;;;10.40;77.49;98822.98;1697980;82;21420;-68
2021/09/20 06:43:56;;;;;;;2.15;1.22;;;;;;;10.29;77.76;98819.11;1704842;82;21455;-68
2021/09/20 06:46:24;;;;;;;1.85;1.40;;;;;;;10.24;78.17;98822.92;1690960;82;21822;-67
2021/09/20 06:48:52;;;;;;;0.93;0.93;;;;;;;10.32;78.21;98824.69;1700206;82;21408;-67
2021/09/20 06:51:19;;;;;;;1.30;1.20;;;;;;;10.38;77.67;98828.75;1694140;82;21527;-67
2021/09/20 06:53:46;;;;;;;1.45;1.27;;;;;;;10.34;77.93;98832.05;1701905;82;21172;-67
2021/09/20 06:56:13;;;;;;;3.23;1.43;;;;;;;10.37;78.39;98831.02;1704861;82;21471;-66
2021/09/20 06:58:39;;;;;;;2.15;1.00;;;;;;;10.42;78.43;98842.97;1704026;82;22157;-66
2021/09/20 07:01:07;;;;;;;1.00;1.00;;;;;;;10.56;77.70;98833.48;1704347;82;21981;-66
2021/09/20 07:03:34;;;;;;;1.32;1.22;;;;;;;10.50;77.90;98832.03;1705207;82;21499;-66
2021/09/20 07:06:01;;;;;;;1.22;1.02;;;;;;;10.48;77.45;98833.91;1717353;81;21552;-67
2021/09/20 07:08:28;;;;;;;1.17;0.78;;;;;;;10.39;78.45;98843.13;1717632;82;21474;-66
2021/09/20 07:10:56;;;;;;;1.35;1.02;;;;;;;10.41;78.68;98839.95;1717367;81;21460;-68
2021/09/20 07:13:22;;;;;;;1.50;1.15;;;;;;;10.46;78.62;98843.66;1717497;81;21463;-67
2021/09/20 07:15:50;;;;;;;1.57;0.95;;;;;;;10.49;78.68;98848.28;1717029;82;21562;-67
2021/09/20 07:18:17;;;;;;;1.98;1.00;;;;;;;10.50;78.73;98851.75;1717553;81;21643;-67
2021/09/20 07:20:46;;;;;;;2.08;0.80;;;;;;;10.64;78.75;98849.22;1717038;81;21415;-66
2021/09/20 07:23:13;;;;;;;3.08;1.00;;;;;;;10.65;78.66;98858.78;1717404;81;21792;-67
2021/09/20 07:25:40;;;;;;;2.35;1.17;;;;;;;10.64;78.64;98866.75;1717267;82;28666;-67
2021/09/20 07:28:07;;;;;;;1.55;1.20;;;;;;;10.58;78.45;98862.67;1717439;82;21550;-66
2021/09/20 07:30:34;;;;;;;2.50;1.20;;;;;;;10.62;78.37;98865.52;1716815;82;21485;-66
2021/09/20 07:33:02;;;;;;;2.65;1.10;;;;;;;10.72;78.23;98864.56;1716425;82;21506;-68
2021/09/20 07:35:29;;;;;;;1.50;1.40;;;;;;;10.74;78.18;98863.13;1711793;81;21948;-68
2021/09/20 07:37:56;;;;;;;1.82;1.32;;;;;;;10.75;78.13;98870.94;1715032;82;20958;-68
2021/09/20 07:40:26;;;;;;;2.25;1.27;;;;;;;10.74;78.20;98869.70;1715360;81;21708;-65
2021/09/20 07:42:53;;;;;;;1.55;1.10;;;;;;;10.78;78.26;98867.31;1710483;81;21563;-68
2021/09/20 07:45:20;;;;;;;1.07;1.02;;;;;;;10.83;78.09;98872.70;1709531;81;21537;-65
2021/09/20 07:47:47;;;;;;;1.20;1.10;;;;;;;10.82;78.00;98863.09;1710414;82;21802;-64
2021/09/20 07:50:15;;;;;;;1.00;1.00;;;;;;;10.82;78.34;98880.19;1710789;82;21559;-67
2021/09/20 07:52:42;;;;;;;1.40;1.30;;;;;;;10.88;78.29;98875.05;1712719;81;21061;-66
2021/09/20 07:55:09;;;;;;;1.07;0.80;;;;;;;10.95;77.79;98873.78;1715770;83;21042;-66
2021/09/20 07:57:37;;;;;;;3.65;1.12;;;;;;;10.95;78.05;98876.88;1715982;83;20990;-66
2021/09/20 08:00:06;;;;;;;0.90;0.90;;;;;;;10.97;77.80;98871.91;1723696;81;22069;-65
2021/09/20 08:02:33;;;;;;;1.32;1.22;;;;;;;10.96;78.20;98873.30;1730156;81;21406;-65
2021/09/20 08:05:00;;;;;;;2.62;0.88;;;;;;;11.10;77.67;98874.69;1715395;81;21415;-65
2021/09/20 08:07:27;;;;;;;1.37;1.25;;;;;;;11.12;77.40;98879.39;1709687;82;21479;-64
2021/09/20 08:09:55;;;;;;;1.67;1.47;;;;;;;11.08;77.12;98880.03;1709541;82;21521;-64
2021/09/20 08:12:23;;;;;;;1.40;1.30;;;;;;;11.04;76.84;98881.15;1708293;82;21541;-63
2021/09/20 08:14:50;;;;;;;1.80;1.25;;;;;;;11.00;77.28;98891.91;1717399;81;21564;-64
2021/09/20 08:18:22;;;;;;;1.47;1.37;;;;;;;11.17;77.43;98887.88;1787539;79;23098;-65
2021/09/20 08:20:49;;;;;;;1.72;1.47;;;;;;;11.16;77.49;98891.91;1747683;81;21676;-65
2021/09/20 08:23:16;;;;;;;2.30;1.45;;;;;;;11.17;77.12;98894.91;1747853;80;22078;-64
2021/09/20 08:25:43;;;;;;;1.40;1.30;;;;;;;11.15;77.21;98896.78;1746762;80;21492;-64
2021/09/20 08:28:10;;;;;;;2.00;1.45;;;;;;;11.20;77.21;98895.58;1746054;81;21575;-66
2021/09/20 08:30:37;;;;;;;1.77;1.67;;;;;;;11.30;77.09;98896.77;1747978;80;21501;-67
2021/09/20 08:33:03;;;;;;;1.57;1.47;;;;;;;11.36;76.67;98890.74;1747870;80;22242;-63
2021/09/20 08:35:32;;;;;;;1.20;1.10;;;;;;;11.29;76.69;98897.69;1747643;81;21383;-65
2021/09/20 08:37:59;;;;;;;1.15;1.07;;;;;;;11.28;76.67;98891.19;1747641;81;21448;-66
2021/09/20 08:40:27;;;;;;;1.32;1.12;;;;;;;11.34;76.76;98892.62;1747645;81;21525;-63
2021/09/20 08:42:56;;;;;;;1.42;1.32;;;;;;;11.42;76.70;98897.83;1745894;81;21199;-66
2021/09/20 08:45:24;;;;;;;3.40;1.60;;;;;;;11.49;76.53;98891.28;1739938;80;21502;-66
2021/09/20 08:47:52;;;;;;;1.42;1.32;;;;;;;11.54;76.27;98903.31;1740990;80;21832;-67
2021/09/20 08:50:29;;;;;;;1.60;1.45;;;;;;;11.54;76.10;98900.20;1738662;80;21550;-65
2021/09/20 08:52:56;;;;;;;1.50;1.40;;;;;;;11.62;76.39;98906.34;1737309;80;21601;-65
2021/09/20 08:55:23;;;;;;;2.80;1.12;;;;;;;11.80;75.16;98907.05;1744188;81;21455;-67
2021/09/20 08:57:52;;;;;;;1.20;1.20;;;;;;;11.78;75.00;98908.45;1739540;80;21510;-66
2021/09/20 09:00:20;;;;;;;1.40;1.30;;;;;;;11.77;74.83;98909.85;1737929;80;21796;-69
2021/09/20 09:02:46;;;;;;;1.22;1.20;;;;;;;11.72;75.05;98913.25;1738421;80;21529;-68
2021/09/20 09:05:23;;;;;;;1.05;0.95;;;;;;;11.75;75.62;98911.73;1749222;81;21561;-64
2021/09/20 09:08:05;;;;;;;1.50;1.37;;;;;;;11.85;75.64;98918.17;1747739;80;21495;-65
2021/09/20 09:10:37;;;;;;;1.47;0.98;;;;;;;11.92;75.20;98919.98;1770722;80;21868;-67
2021/09/20 09:13:06;;;;;;;0.95;0.93;;;;;;;11.92;74.94;98924.77;1773487;80;21418;-67
2021/09/20 09:15:34;;;;;;;0.93;0.93;;;;;;;11.91;75.05;98924.41;1758006;80;21420;-66
2021/09/20 09:18:02;;;;;;;1.22;0.95;;;;;;;12.01;75.24;98932.61;1734864;80;21598;-66
2021/09/20 09:20:31;;;;;;;;;;;;;;;12.14;74.75;98930.08;1698969;82;21563;-69
2021/09/20 09:23:11;;;;;;;0.95;0.95;;;;;;;12.11;74.18;98931.12;1698916;82;20439;-66
2021/09/20 09:25:47;;;;;;;1.20;1.00;;;;;;;12.10;74.31;98937.32;1699121;82;22061;-67
2021/09/20 09:28:19;;;;;;;3.12;1.00;;;;;;;12.06;73.63;98932.70;1702595;82;21515;-67
2021/09/20 09:30:56;;;;;;;1.20;1.00;;;;;;;12.10;73.97;98936.48;1769853;80;21503;-68
2021/09/20 09:33:27;;;;;;;0.72;0.70;;;;;;;12.19;73.21;98935.45;1737148;80;21417;-67
2021/09/20 09:35:56;;;;;;;2.87;0.80;;;;;;;12.24;73.64;98943.06;1734626;81;21483;-67
2021/09/20 09:38:23;;;;;;;1.05;0.90;;;;;;;12.27;73.43;98940.25;1734376;80;22126;-68
2021/09/20 09:40:58;;;;;;;0.70;0.70;;;;;;;12.31;73.27;98943.08;1734181;80;21492;-66
2021/09/20 09:43:41;;;;;;;0.98;0.80;;;;;;;12.40;73.42;98945.16;1732941;81;21512;-66
2021/09/20 09:46:22;;;;;;;1.22;0.85;;;;;;;12.60;73.08;98945.70;1732694;81;21510;-66
2021/09/20 09:48:53;;;;;;;1.20;1.10;;;;;;;12.67;72.65;98954.92;1732389;81;21412;-67
2021/09/20 09:51:19;;;;;;;0.98;0.88;;;;;;;12.68;72.30;98961.91;1722724;80;21657;-66
2021/09/20 09:53:49;;;;;;;1.30;1.10;;;;;;;12.65;71.73;98960.29;1700774;82;20994;-66
2021/09/20 09:56:21;;;;;;;1.07;0.78;;;;;;;12.60;71.77;98963.70;1698515;82;21514;-67
2021/09/20 09:58:59;;;;;;;0.93;0.90;;;;;;;12.66;72.33;98965.95;1733468;81;21414;-66
2021/09/20 10:01:35;;;;;;;2.42;1.10;;;;;;;12.75;71.34;98970.27;1734227;82;20991;-67
2021/09/20 10:04:24;;;;;;;1.65;1.00;;;;;;;12.68;71.18;98966.31;1745012;80;22104;-69
2021/09/20 10:06:55;;;;;;;0.90;0.90;;;;;;;12.58;71.18;98973.95;1742711;80;21515;-69
2021/09/20 10:09:29;;;;;;;0.62;0.62;;;;;;;12.46;71.89;98971.61;1728829;81;21521;-68
2021/09/20 10:11:59;;;;;;;1.15;0.90;;;;;;;12.49;72.58;98975.39;1731210;82;21535;-67
2021/09/20 10:14:27;;;;;;;0.88;0.88;;;;;;;12.68;72.44;98976.41;1733998;81;21554;-66
2021/09/20 10:16:56;;;;;;;;;;;;;;;12.74;72.23;98978.66;1731638;81;21763;-67
2021/09/20 10:19:24;;;;;;;0.93;0.80;;;;;;;12.73;71.27;98980.08;1723226;81;20475;-68
2021/09/20 10:21:51;;;;;;;0.80;0.80;;;;;;;12.64;71.22;98982.83;1723241;81;20948;-66
2021/09/20 10:24:20;;;;;;;0.70;0.70;;;;;;;12.60;71.51;98987.44;1731850;82;21440;-66
2021/09/20 10:26:47;;;;;;;1.10;0.88;;;;;;;12.61;71.94;98985.64;1734298;81;21498;-68
2021/09/20 10:29:17;;;;;;;;;;;;;;;12.69;71.97;98987.33;1736596;81;21759;-67
2021/09/20 10:31:46;;;;;;;0.93;0.90;;;;;;;12.72;71.78;98990.27;1733946;82;20511;-66
2021/09/20 10:34:24;;;;;;;1.85;0.70;;;;;;;12.70;71.42;98986.40;1734061;82;21488;-67
2021/09/20 10:37:00;;;;;;;0.75;0.75;;;;;;;12.70;71.37;98984.24;1733849;80;20952;-68
2021/09/20 10:39:50;;;;;;;0.80;0.57;;;;;;;12.67;71.21;98979.98;1723895;81;20987;-66
2021/09/20 10:42:46;;;;;;;0.70;0.70;;;;;;;12.67;70.89;98981.30;1734007;81;21797;-65
2021/09/20 10:45:46;;;;;;;1.17;0.75;;;;;;;12.70;70.79;98987.72;1733895;81;21419;-66
2021/09/20 10:48:30;;;;;;;0.72;0.65;;;;;;;12.73;70.89;98994.58;1733287;81;20951;-65
2021/09/20 10:51:17;;;;;;;0.75;0.53;;;;;;;12.79;70.98;98984.95;1720969;81;21487;-66
2021/09/20 10:53:44;;;;;;;0.62;0.53;;;;;;;12.81;71.00;98979.14;1723477;82;21498;-68
2021/09/20 10:56:17;;;;;;;0.60;0.50;;;;;;;12.94;71.13;98988.43;1711259;81;21522;-67
2021/09/20 10:58:59;;;;;;;0.70;0.70;;;;;;;13.09;70.60;98986.62;1727779;82;20950;-64
2021/09/20 11:01:30;;;;;;;0.85;0.70;;;;;;;13.12;70.06;98991.23;1730258;80;21508;-62
2021/09/20 11:04:04;;;;;;;0.75;0.60;;;;;;;13.12;69.49;98991.23;1731616;81;21531;-62
2021/09/20 11:06:34;;;;;;;1.55;0.60;;;;;;;13.03;69.32;98999.73;1733908;81;21431;-63
2021/09/20 11:09:09;;;;;;;0.40;0.40;;;;;;;12.97;69.09;98994.84;1732967;81;22136;-62
2021/09/20 11:11:44;;;;;;;0.80;0.62;;;;;;;12.87;69.45;99000.34;1733949;80;21479;-62
2021/09/20 11:14:22;;;;;;;0.50;0.50;;;;;;;12.88;70.28;99000.22;1733921;81;20947;-63
2021/09/20 11:17:01;;;;;;;0.50;0.50;;;;;;;13.02;70.34;98997.57;1733953;81;21420;-63
2021/09/20 11:19:34;;;;;;;0.62;0.62;;;;;;;13.06;70.19;99004.83;1747239;81;21511;-63
2021/09/20 11:22:16;;;;;;;0.33;0.33;;;;;;;13.05;69.65;99011.03;1710406;83;21423;-63
2021/09/20 11:24:54;;;;;;;0.50;0.40;;;;;;;13.03;69.47;99005.00;1698077;84;21439;-63
2021/09/20 11:27:36;;;;;;;0.82;0.60;;;;;;;13.08;69.41;99006.05;1707060;82;21439;-63
2021/09/20 11:30:18;;;;;;;0.75;0.53;;;;;;;13.11;69.37;99004.07;1708043;82;21435;-62
2021/09/20 11:32:56;;;;;;;0.80;0.70;;;;;;;13.26;69.28;99002.25;1672686;84;21423;-62
2021/09/20 11:35:27;;;;;;;0.62;0.53;;;;;;;13.31;68.42;98998.01;1672550;84;21779;-61
2021/09/20 11:37:57;;;;;;;0.53;0.53;;;;;;;13.36;68.50;98999.89;1672347;85;21566;-62
2021/09/20 11:40:27;;;;;;;4.60;0.53;;;;;;;13.39;68.46;99001.86;1672613;85;21545;-63
2021/09/20 11:42:57;;;;;;;0.60;0.50;;;;;;;13.41;68.37;99008.34;1672642;85;21081;-63
2021/09/20 11:45:34;;;;;;;0.30;0.30;;;;;;;13.43;68.43;99013.08;1674611;83;21069;-64
2021/09/20 11:48:06;;;;;;;1.05;0.60;;;;;;;13.49;68.64;99014.47;1680817;84;21787;-63